x

Buoy E01 - Central Maine Shelf (44032) Wave Buoy

3:04pm - Fri 26th Aug 2016 All times are EDT. -4 hours from GMT.

  • Sig Wave height 3.0ft
  • Peak Period 5s
  • Wind
    9mph, 11mph gusts
  • Sea Temp 63°f
  • Air Temp 65°f
  • Sea Pressure 1012.5mb
  • Buoy E01 - Central Maine Shelf
  • Buoy E01 - Central Maine Shelf

More Historic Weather Station data

Upgrade to MSW Pro to gain access to the past 30 days of data for over 8000 Wavebouys and Weather Stations around the globe.

Join Pro

Comparision Forecast

View Surf forecast
   
Fri 08/26 3:04pm 3ft 5s 9 11 mph 1012.5mb 63f 65f
2:04pm 3ft 5s 7 9 mph 1012.5mb 62f 66f
1:04pm 3ft 5s 7
mph
1012.5mb 62f 65f
12:04pm 3ft 5s 16 18 mph 1012.8mb 62f 66f
11:04am 3.5ft 5s 9 11 mph 1013.2mb 63f 65f
10:04am 3ft 5s 9
mph
1013.4mb 62f 65f
9:04am 3.5ft 6s 9
mph
1013.3mb 62f 65f
8:04am 3.5ft 5s 9 11 mph 1012.9mb 62f 65f
7:04am 3.5ft 5s 11 13 mph 1012.8mb 62f 65f
6:04am 3.5ft 6s 13
mph
1012.9mb 62f 65f
5:04am 4.5ft 6s 13 16 mph 1012.5mb 62f 65f
4:04am 4.5ft 6s 13 16 mph 1012.5mb 62f 65f
3:04am 4.5ft 5s 16 18 mph 1012.7mb 62f 65f
2:04am 4.5ft 6s 16 18 mph 1013.1mb 61f 65f
1:04am 5ft 6s 16 18 mph 1013.3mb 61f 65f
12:04am 5ft 6s 18 20 mph 1013.2mb 61f 66f
Thu 08/25 11:04pm 5ft 6s 16 18 mph 1013.8mb 61f 65f
10:04pm 4.5ft 6s 16 20 mph 1014mb 62f 65f
9:04pm 4.5ft 5s 16 18 mph 1013.9mb 61f 66f
8:04pm 4ft 5s 16 18 mph 1013.8mb 61f 66f
7:04pm 3.5ft 5s 18 20 mph 1013.4mb 62f 66f
6:04pm 4.5ft 5s 18 20 mph 1013.5mb 62f 66f
5:04pm 5ft 6s 18
mph
1013.6mb 61f 66f
4:04pm 4.5ft 5s 18 20 mph 1014mb 61f 66f
3:04pm 4.5ft 5s 20 22 mph 1014.5mb 61f 66f
2:04pm 4.5ft 5s 18 20 mph 1015.3mb 61f 66f
1:04pm 3.5ft 5s 16 20 mph 1015.8mb 61f 65f
12:04pm 4ft 5s 16 18 mph 1016.4mb 61f 65f
11:04am 3.5ft 5s 16 18 mph 1016.6mb 61f 65f
10:04am 3.5ft 5s 13
mph
1017mb 61f 64f
9:04am 3.5ft 5s 16 18 mph 1016.9mb 61f 65f
8:04am 3.5ft 5s 16 18 mph 1017mb 61f 65f
7:04am 3ft 5s 18 20 mph 1017mb 61f 64f
6:04am 2.5ft 5s 16 18 mph 1017.4mb 61f 65f
5:04am 2.5ft 4s 13 16 mph 1017.3mb 61f 65f
4:04am 2ft 4s 11 13 mph 1017.4mb 62f 65f
3:04am 2ft 4s 13 16 mph 1017.3mb 62f 65f
2:04am 1.6ft 4s 11 13 mph 1018.1mb 62f 65f
1:04am 1.6ft 4s 9
mph
1018.7mb 62f 65f
12:04am 1.6ft 4s 4
mph
1019mb 63f 65f
Wed 08/24 11:04pm 1.6ft 8s 4 7 mph 1019.4mb 63f 65f
10:04pm 1.3ft 8s 4 7 mph 1019.8mb 62f 65f
9:04pm 1.6ft 8s 2 4 mph 1020.3mb 62f 64f
8:04pm 1.6ft 11s 9
mph
1020mb 62f 65f
7:04pm 1.3ft 4s 7
mph
1019.9mb 63f 64f
6:04pm 1.3ft 4s 4
mph
1019.9mb 62f 64f
5:04pm 1.3ft 4s 9 11 mph 1020.1mb 62f 65f
4:04pm 1.3ft 4s 11 13 mph 1020.3mb 62f 65f
3:04pm 2ft 5s 7 9 mph 1020.9mb 62f 64f
2:04pm 2ft 4s 7 9 mph 1021.6mb 62f 64f
1:04pm 2ft 4s 7
mph
1021.7mb 62f 63f
12:04pm 1.6ft 8s 7 9 mph 1022mb 61f 63f
11:04am 1.6ft 8s 4 7 mph 1022.7mb 61f 63f
10:04am 1.6ft 8s 7 9 mph 1022.9mb 60f 62f
9:04am 1.6ft 8s 7 9 mph 1022.8mb 60f 62f
8:04am 1.3ft 5s 9
mph
1022.8mb 60f 63f
7:04am 1.3ft 5s 7
mph
1022.5mb 60f 63f
6:04am 1.6ft 5s 7
mph
1021.7mb 60f 62f
5:04am 1.6ft 5s 7
mph
1021.7mb 60f 62f
4:04am 2ft 5s 7 9 mph 1021.7mb 60f 62f
3:04am 2.5ft 5s 7 9 mph 1021.8mb 60f 63f
2:04am 2.5ft 5s 9 11 mph 1021.9mb 60f 63f
1:04am 2.5ft 4s 11
mph
1022.2mb 60f 64f
12:04am 2.5ft 4s 7 9 mph 1022.5mb 60f 63f
Tue 08/23 11:04pm 2.5ft 4s 11
mph
1022.4mb 60f 64f
10:04pm 2.5ft 8s 11
mph
1022.1mb 61f 64f
9:04pm 1.6ft 4s 13 16 mph 1022mb 61f 64f
8:04pm 2ft 8s 11 13 mph 1021.4mb 61f 64f
7:04pm 1.3ft 4s 11 13 mph 1021.4mb 61f 64f
6:04pm 1.3ft 4s 11 13 mph 1021.2mb 61f 64f
5:04pm 1.6ft 4s 11
mph
1021.4mb 61f 64f
4:04pm 2ft 11s 11 13 mph 1021.7mb 61f 64f
3:04pm 1.3ft 3s 11 13 mph 1022.2mb 61f 64f
2:04pm 1.3ft 4s 11 13 mph 1022.5mb 61f 64f
1:04pm 1.6ft 8s 11 13 mph 1022.9mb 61f 63f
12:04pm 1.3ft 4s 11 13 mph 1022.9mb 61f 63f
11:04am 2ft 11s 11
mph
1023.3mb 60f 62f
10:04am 1.6ft 4s 7 9 mph 1023.4mb 60f 62f
9:04am 1.6ft 4s 11 13 mph 1022.8mb 59f 62f
8:04am 1.6ft 3s 13 16 mph 1022.3mb 59f 62f
7:04am 1.6ft 4s 16 18 mph 1021.9mb 59f 62f
6:04am 1.6ft 4s 13 16 mph 1021.2mb 60f 61f
5:04am 1.6ft 3s 13 16 mph 1020.4mb 60f 61f
4:04am 1.6ft 4s 16 18 mph 1020mb 60f 61f
3:04am 1.6ft 4s 11 13 mph 1019.6mb 60f 61f
2:04am 2ft 3s 13 16 mph 1019.3mb 60f 61f
1:04am 1.3ft 3s 13 16 mph 1018.9mb 60f 62f
12:04am 1.3ft 3s 11 13 mph 1018.5mb 60f 62f
Mon 08/22 11:04pm 1.3ft 3s 13 16 mph 1017.9mb 60f 62f
10:04pm 2ft 4s 13 16 mph 1017.5mb 60f 63f
9:04pm 2.5ft 4s 13 18 mph 1016.6mb 59f 64f